Time;durP1;ratioP1;P1;durP2;ratioP2;P2;SDS_P1;SDS_P2;PMS_P1;PMS_P2;Temp;Humidity;BMP_temperature;BMP_pressure;BME280_temperature;BME280_humidity;BME280_pressure;Samples;Min_cycle;Max_cycle;Signal;HPM_P1;HPM_P2
2022/02/05 00:02:06;;;;;;;;;;;5.30;99.90;;;;;;5056212;28;19916;-79
2022/02/05 00:04:34;;;;;;;;;;;5.30;99.90;;;;;;5052676;28;19917;-80
2022/02/05 00:07:00;;;;;;;;;;;5.30;99.90;;;;;;5076307;28;19974;-79
2022/02/05 00:15:16;;;;;;;;;;;5.20;99.90;;;;;;5073155;28;20369;-80
2022/02/05 00:42:26;;;;;;;;;;;5.20;99.90;;;;;;5035625;28;19932;-80
2022/02/05 00:44:51;;;;;;;;;;;5.20;99.90;;;;;;5034631;28;19909;-80
2022/02/05 00:47:17;;;;;;;;;;;5.20;99.90;;;;;;5037728;28;19963;-78
2022/02/05 00:49:45;;;;;;;;;;;5.10;99.90;;;;;;5055569;28;20319;-80
2022/02/05 00:52:14;;;;;;;;;;;5.10;99.90;;;;;;5055423;28;19996;-79
2022/02/05 00:54:44;;;;;;;;;;;5.20;99.90;;;;;;5052099;28;20373;-79
2022/02/05 00:57:32;;;;;;;;;;;5.20;99.90;;;;;;5037294;28;19958;-80
2022/02/05 00:59:58;;;;;;;;;;;5.00;99.90;;;;;;5037326;28;19934;-79
2022/02/05 01:02:24;;;;;;;;;;;5.00;99.90;;;;;;5052865;28;19909;-79
2022/02/05 01:04:49;;;;;;;;;;;4.90;99.90;;;;;;5015915;28;19917;-80
2022/02/05 01:07:15;;;;;;;;;;;4.90;99.90;;;;;;5035346;28;20373;-78
2022/02/05 01:09:44;;;;;;;;;;;4.80;99.90;;;;;;5034849;28;20007;-79
2022/02/05 01:12:09;;;;;;;;;;;4.80;99.90;;;;;;5017500;28;19909;-79
2022/02/05 01:14:44;;;;;;;;;;;4.80;99.90;;;;;;5033108;28;20288;-80
2022/02/05 01:17:12;;;;;;;;;;;4.70;99.90;;;;;;5035372;28;19929;-79
2022/02/05 01:20:02;;;;;;;;;;;4.60;99.90;;;;;;5033623;28;20035;-79
2022/02/05 01:22:23;;;;;;;;;;;4.70;99.90;;;;;;5034933;28;19995;-80
2022/02/05 01:24:51;;;;;;;;;;;4.70;99.90;;;;;;5011591;28;20059;-79
2022/02/05 01:27:43;;;;;;;;;;;4.60;99.90;;;;;;4993501;28;20385;-79
2022/02/05 01:30:32;;;;;;;;;;;4.60;99.90;;;;;;5034762;28;20408;-79
2022/02/05 01:52:00;;;;;;;;;;;4.90;99.90;;;;;;5034375;28;19924;-79
2022/02/05 01:57:16;;;;;;;;;;;5.20;99.90;;;;;;5031517;28;20318;-78
2022/02/05 02:05:03;;;;;;;;;;;4.80;99.90;;;;;;5034053;28;19979;-79
2022/02/05 02:10:51;;;;;;;;;;;4.80;99.90;;;;;;5034240;28;20403;-79
2022/02/05 02:13:46;;;;;;;;;;;4.80;99.90;;;;;;5033900;28;19917;-79
2022/02/05 02:19:12;;;;;;;;;;;4.70;99.90;;;;;;5051023;28;19916;-79
2022/02/05 02:22:06;;;;;;;;;;;4.70;99.90;;;;;;5052985;28;19944;-80
2022/02/05 02:27:20;;;;;;;;;;;4.60;99.90;;;;;;5050508;28;19958;-80
2022/02/05 02:30:01;;;;;;;;;;;4.50;99.90;;;;;;5033577;28;19917;-80
2022/02/05 02:32:27;;;;;;;;;;;4.60;99.90;;;;;;5033627;28;19909;-79
2022/02/05 02:34:59;;;;;;;;;;;4.60;99.90;;;;;;5033897;28;20016;-79
2022/02/05 02:37:32;;;;;;;;;;;4.60;99.90;;;;;;5022747;28;19916;-80
2022/02/05 02:43:07;;;;;;;;;;;4.60;99.90;;;;;;4992171;28;19918;-80
2022/02/05 02:45:34;;;;;;;;;;;4.50;99.90;;;;;;5022487;28;19916;-79
2022/02/05 02:48:00;;;;;;;;;;;4.50;99.90;;;;;;5021898;28;19913;-79
2022/02/05 02:56:29;;;;;;;;;;;4.70;99.90;;;;;;5033782;28;19996;-79
2022/02/05 02:58:50;;;;;;;;;;;4.20;99.90;;;;;;5012603;28;19916;-79
2022/02/05 03:01:19;;;;;;;;;;;4.30;99.90;;;;;;5013584;28;19910;-80
2022/02/05 03:03:45;;;;;;;;;;;4.30;99.90;;;;;;5012452;28;19978;-79
2022/02/05 03:06:10;;;;;;;;;;;4.40;99.90;;;;;;5012296;28;20362;-80
2022/02/05 03:08:36;;;;;;;;;;;4.60;99.90;;;;;;5024628;28;19958;-80
2022/02/05 03:11:02;;;;;;;;;;;4.70;99.90;;;;;;5033246;28;19934;-79
2022/02/05 03:13:28;;;;;;;;;;;4.70;99.90;;;;;;5033454;28;20051;-79
2022/02/05 03:15:53;;;;;;;;;;;4.70;99.90;;;;;;5052745;28;20393;-80
2022/02/05 03:18:46;;;;;;;;;;;4.60;99.90;;;;;;5074883;28;19908;-79
2022/02/05 03:21:11;;;;;;;;;;;4.40;99.90;;;;;;5072921;28;19912;-79
2022/02/05 03:23:37;;;;;;;;;;;4.30;99.90;;;;;;5072991;28;20413;-80
2022/02/05 03:26:03;;;;;;;;;;;4.20;99.90;;;;;;5073047;28;19909;-80
2022/02/05 03:28:29;;;;;;;;;;;4.10;99.90;;;;;;5033724;28;19924;-79
2022/02/05 03:30:54;;;;;;;;;;;4.20;99.90;;;;;;5052746;28;19916;-81
2022/02/05 03:33:20;;;;;;;;;;;4.30;99.90;;;;;;5053650;28;19963;-79
2022/02/05 03:35:46;;;;;;;;;;;4.10;99.90;;;;;;5056930;28;20004;-79
2022/02/05 03:38:12;;;;;;;;;;;4.00;99.90;;;;;;5055672;28;19951;-80
2022/02/05 03:40:37;;;;;;;;;;;3.90;99.90;;;;;;5056876;28;19919;-80
2022/02/05 03:43:03;;;;;;;;;;;3.90;99.90;;;;;;5057030;28;20000;-79
2022/02/05 03:45:29;;;;;;;;;;;3.90;99.90;;;;;;5056656;28;20336;-79
2022/02/05 03:47:54;;;;;;;;;;;3.80;99.90;;;;;;5053591;28;19959;-80
2022/02/05 03:50:21;;;;;;;;;;;3.90;99.90;;;;;;5056773;28;20007;-79
2022/02/05 03:52:47;;;;;;;;;;;3.90;99.90;;;;;;5056593;28;19915;-79
2022/02/05 03:55:12;;;;;;;;;;;3.80;99.90;;;;;;5056586;28;19913;-80
2022/02/05 03:57:38;;;;;;;;;;;3.90;99.90;;;;;;5054466;28;19916;-80
2022/02/05 04:00:07;;;;;;;;;;;4.20;99.90;;;;;;5056517;28;19916;-79
2022/02/05 04:02:33;;;;;;;;;;;4.20;99.90;;;;;;5056589;28;20014;-80
2022/02/05 04:04:59;;;;;;;;;;;4.10;99.90;;;;;;5056776;28;19915;-80
2022/02/05 04:07:27;;;;;;;;;;;3.90;99.90;;;;;;5042698;28;19908;-80
2022/02/05 04:09:58;;;;;;;;;;;4.00;99.90;;;;;;5058435;28;19914;-79
2022/02/05 04:17:52;;;;;;;;;;;4.00;99.90;;;;;;5061451;28;19931;-78
2022/02/05 04:20:18;;;;;;;;;;;4.10;99.90;;;;;;5056275;28;20373;-78
2022/02/05 04:22:44;;;;;;;;;;;4.10;99.90;;;;;;5056067;28;19909;-80
2022/02/05 04:25:10;;;;;;;;;;;4.10;99.90;;;;;;5056210;28;19915;-79
2022/02/05 04:27:35;;;;;;;;;;;4.00;99.90;;;;;;5052818;28;20373;-79
2022/02/05 04:30:01;;;;;;;;;;;3.90;99.90;;;;;;5019487;28;19932;-80
2022/02/05 04:32:26;;;;;;;;;;;3.80;99.90;;;;;;5055847;28;19909;-79
2022/02/05 04:34:52;;;;;;;;;;;3.70;99.90;;;;;;5037927;28;20389;-80
2022/02/05 04:37:21;;;;;;;;;;;3.70;99.90;;;;;;5052721;28;19916;-79
2022/02/05 04:39:53;;;;;;;;;;;3.60;99.90;;;;;;5055686;28;19909;-80
2022/02/05 04:42:25;;;;;;;;;;;3.60;99.90;;;;;;5037756;28;19909;-79
2022/02/05 04:51:04;;;;;;;;;;;3.70;99.90;;;;;;5045853;28;19916;-78
2022/02/05 04:53:38;;;;;;;;;;;3.80;99.90;;;;;;5055392;28;19915;-80
2022/02/05 05:01:45;;;;;;;;;;;3.70;99.90;;;;;;5075189;28;19909;-80
2022/02/05 05:04:35;;;;;;;;;;;3.60;99.90;;;;;;5057289;28;20386;-79
2022/02/05 05:10:09;;;;;;;;;;;3.40;99.90;;;;;;5074900;28;19915;-79
2022/02/05 05:13:01;;;;;;;;;;;3.50;99.90;;;;;;5057026;28;19999;-78
2022/02/05 05:20:40;;;;;;;;;;;3.70;99.90;;;;;;5074887;28;20335;-78
2022/02/05 05:23:07;;;;;;;;;;;3.80;99.90;;;;;;5074985;28;20427;-79
2022/02/05 05:25:32;;;;;;;;;;;3.70;99.90;;;;;;5075137;28;19909;-79
2022/02/05 05:27:58;;;;;;;;;;;3.60;99.90;;;;;;5053548;28;19916;-80
2022/02/05 05:30:23;;;;;;;;;;;3.70;99.90;;;;;;5055744;28;19959;-79
2022/02/05 05:32:49;;;;;;;;;;;3.80;99.90;;;;;;5074623;28;19913;-80
2022/02/05 05:35:14;;;;;;;;;;;3.70;99.90;;;;;;5074747;28;19913;-79
2022/02/05 05:37:40;;;;;;;;;;;3.60;99.90;;;;;;5071532;28;20413;-79
2022/02/05 05:40:07;;;;;;;;;;;3.60;99.90;;;;;;5074746;28;19909;-79
2022/02/05 05:42:40;;;;;;;;;;;3.70;99.90;;;;;;5074857;28;19915;-79
2022/02/05 05:47:59;;;;;;;;;;;3.70;99.90;;;;;;5071241;28;19975;-80
2022/02/05 05:53:08;;;;;;;;;;;3.90;99.90;;;;;;5074198;28;19912;-79
2022/02/05 05:55:34;;;;;;;;;;;3.70;99.90;;;;;;5056397;28;19935;-79
2022/02/05 05:58:00;;;;;;;;;;;3.60;99.90;;;;;;5057258;28;20364;-78
2022/02/05 06:00:26;;;;;;;;;;;3.60;99.90;;;;;;5054106;28;19931;-80
2022/02/05 06:02:52;;;;;;;;;;;3.50;99.90;;;;;;5036416;28;19908;-79
2022/02/05 06:05:17;;;;;;;;;;;3.50;99.90;;;;;;5036394;28;19909;-79
2022/02/05 06:07:43;;;;;;;;;;;3.50;99.90;;;;;;5040538;28;19908;-80
2022/02/05 06:10:08;;;;;;;;;;;3.40;99.90;;;;;;5074059;28;19991;-80
2022/02/05 06:12:34;;;;;;;;;;;3.40;99.90;;;;;;5074138;28;19908;-80
2022/02/05 06:15:03;;;;;;;;;;;3.40;99.90;;;;;;5073576;28;19918;-79
2022/02/05 06:17:29;;;;;;;;;;;3.60;99.90;;;;;;5063694;28;19916;-78
2022/02/05 06:19:55;;;;;;;;;;;3.70;99.90;;;;;;5072119;28;19908;-78
2022/02/05 06:22:21;;;;;;;;;;;3.70;99.90;;;;;;5073834;28;19954;-80
2022/02/05 06:24:46;;;;;;;;;;;3.60;99.90;;;;;;5055926;28;19909;-79
2022/02/05 06:27:12;;;;;;;;;;;3.60;99.90;;;;;;5066886;28;19913;-81
2022/02/05 06:29:38;;;;;;;;;;;3.50;99.90;;;;;;5053846;28;19924;-78
2022/02/05 06:32:03;;;;;;;;;;;3.60;99.90;;;;;;5073625;28;19909;-80
2022/02/05 06:34:29;;;;;;;;;;;3.40;99.90;;;;;;5073524;28;20007;-79
2022/02/05 06:36:55;;;;;;;;;;;3.20;99.90;;;;;;5071393;28;19923;-80
2022/02/05 06:39:21;;;;;;;;;;;3.30;99.90;;;;;;5056735;28;19991;-78
2022/02/05 06:41:47;;;;;;;;;;;3.40;99.90;;;;;;5035666;28;19908;-79
2022/02/05 06:44:13;;;;;;;;;;;3.30;99.90;;;;;;5053345;28;19916;-79
2022/02/05 06:46:39;;;;;;;;;;;3.20;99.90;;;;;;5052688;28;19920;-79
2022/02/05 06:49:05;;;;;;;;;;;3.20;99.90;;;;;;5069062;28;19908;-78
2022/02/05 06:51:30;;;;;;;;;;;3.10;99.90;;;;;;5073424;28;19999;-79
2022/02/05 06:53:56;;;;;;;;;;;3.20;99.90;;;;;;5073488;28;19939;-79
2022/02/05 06:56:21;;;;;;;;;;;3.30;99.90;;;;;;5073030;28;19919;-80
2022/02/05 06:58:47;;;;;;;;;;;3.20;99.90;;;;;;5070026;28;19961;-80
2022/02/05 07:01:13;;;;;;;;;;;3.10;99.90;;;;;;5073199;28;19915;-79
2022/02/05 07:03:38;;;;;;;;;;;3.20;99.90;;;;;;5073261;28;19909;-79
2022/02/05 07:06:05;;;;;;;;;;;3.10;99.90;;;;;;5073285;28;19915;-79
2022/02/05 07:08:31;;;;;;;;;;;3.20;99.90;;;;;;5052399;28;19958;-80
2022/02/05 07:10:57;;;;;;;;;;;3.20;99.90;;;;;;5053306;28;20324;-80
2022/02/05 07:13:22;;;;;;;;;;;3.20;99.90;;;;;;5053184;28;19915;-80
2022/02/05 07:16:04;;;;;;;;;;;3.00;99.90;;;;;;5052631;28;19924;-80
2022/02/05 07:21:10;;;;;;;;;;;3.30;99.90;;;;;;5032857;28;19917;-79
2022/02/05 07:31:36;;;;;;;;;;;3.00;99.90;;;;;;5014828;28;20396;-80
2022/02/05 07:34:02;;;;;;;;;;;3.00;99.90;;;;;;5033053;28;20282;-80
2022/02/05 07:36:28;;;;;;;;;;;3.20;99.90;;;;;;5032529;28;19917;-79
2022/02/05 07:38:53;;;;;;;;;;;3.40;99.90;;;;;;5044926;28;19909;-79
2022/02/05 07:41:19;;;;;;;;;;;3.50;99.90;;;;;;5052948;28;19958;-80
2022/02/05 07:43:45;;;;;;;;;;;3.60;99.90;;;;;;5052789;28;19931;-80
2022/02/05 07:46:12;;;;;;;;;;;3.70;99.90;;;;;;5052850;28;20047;-80
2022/02/05 07:48:38;;;;;;;;;;;3.80;99.90;;;;;;5028193;28;19916;-79
2022/02/05 07:51:04;;;;;;;;;;;4.10;99.90;;;;;;5032992;28;19909;-80
2022/02/05 07:53:30;;;;;;;;;;;4.30;99.90;;;;;;5032723;28;20388;-79
2022/02/05 07:55:56;;;;;;;;;;;4.50;99.90;;;;;;5032688;28;20003;-80
2022/02/05 07:58:22;;;;;;;;;;;4.70;99.90;;;;;;5035527;28;19984;-78
2022/02/05 08:00:48;;;;;;;;;;;4.90;99.90;;;;;;5032434;28;19956;-79
2022/02/05 08:03:14;;;;;;;;;;;5.20;99.90;;;;;;5032791;28;19940;-80
2022/02/05 08:05:39;;;;;;;;;;;5.50;99.90;;;;;;5032672;28;19996;-80
2022/02/05 08:08:09;;;;;;;;;;;6.00;99.90;;;;;;5034748;28;19909;-79
2022/02/05 08:10:38;;;;;;;;;;;6.30;99.90;;;;;;5032697;28;19917;-78
2022/02/05 08:13:04;;;;;;;;;;;7.10;99.90;;;;;;5032847;28;19909;-80
2022/02/05 08:15:31;;;;;;;;;;;7.50;99.90;;;;;;5038705;28;19927;-80
2022/02/05 08:17:58;;;;;;;;;;;8.10;99.90;;;;;;5049650;28;19916;-80
2022/02/05 08:20:24;;;;;;;;;;;8.50;99.90;;;;;;5072424;28;19908;-79
2022/02/05 08:22:50;;;;;;;;;;;8.90;99.90;;;;;;5076074;28;20339;-80
2022/02/05 08:25:17;;;;;;;;;;;9.40;99.90;;;;;;5076177;28;19953;-81
2022/02/05 08:27:43;;;;;;;;;;;9.40;99.90;;;;;;5062930;28;19908;-80
2022/02/05 08:30:11;;;;;;;;;;;9.90;99.90;;;;;;5036238;28;19921;-80
2022/02/05 08:32:37;;;;;;;;;;;10.40;99.90;;;;;;5056242;28;19909;-79
2022/02/05 08:35:05;;;;;;;;;;;10.90;99.90;;;;;;5056241;28;19912;-80
2022/02/05 08:37:31;;;;;;;;;;;11.10;99.90;;;;;;5043871;28;19917;-79
2022/02/05 08:39:59;;;;;;;;;;;11.80;99.90;;;;;;5076269;28;20325;-81
2022/02/05 08:42:24;;;;;;;;;;;12.50;98.30;;;;;;5076449;28;20045;-79
2022/02/05 08:44:50;;;;;;;;;;;13.10;97.40;;;;;;5057886;28;20004;-80
2022/02/05 08:47:15;;;;;;;;;;;13.30;96.20;;;;;;5068336;28;19913;-80
2022/02/05 08:49:41;;;;;;;;;;;12.70;95.60;;;;;;5075189;28;19909;-80
2022/02/05 08:52:09;;;;;;;;;;;13.10;95.60;;;;;;5057679;28;19908;-81
2022/02/05 08:54:35;;;;;;;;;;;13.90;95.00;;;;;;5075505;28;19948;-81
2022/02/05 08:57:01;;;;;;;;;;;14.50;93.90;;;;;;5074064;28;20296;-81
2022/02/05 08:59:30;;;;;;;;;;;14.50;92.30;;;;;;5045039;28;19920;-80
2022/02/05 09:02:01;;;;;;;;;;;14.40;92.60;;;;;;5056124;28;19954;-81
2022/02/05 09:05:40;;;;;;;;;;;14.80;92.60;;;;;;5037606;28;19949;-79
2022/02/05 09:07:21;;;;;;;;;;;15.70;90.30;;;;;;5040510;28;19931;-79
2022/02/05 09:10:12;;;;;;;;;;;15.70;90.10;;;;;;5037192;28;20380;-80
2022/02/05 09:15:05;;;;;;;;;;;18.10;84.30;;;;;;5055088;28;19921;-80
2022/02/05 09:17:31;;;;;;;;;;;18.60;79.60;;;;;;5037599;28;20369;-81
2022/02/05 09:19:56;;;;;;;;;;;19.20;76.70;;;;;;5060488;28;20392;-80
2022/02/05 09:22:22;;;;;;;;;;;18.70;74.10;;;;;;5055582;28;19958;-81
2022/02/05 09:24:48;;;;;;;;;;;18.30;76.10;;;;;;5055602;28;19920;-80
2022/02/05 09:27:15;;;;;;;;;;;18.30;74.60;;;;;;5055405;28;19915;-80
2022/02/05 09:29:47;;;;;;;;;;;18.30;74.10;;;;;;5065569;28;19913;-82
2022/02/05 09:32:13;;;;;;;;;;;18.40;74.40;;;;;;5056062;28;20366;-80
2022/02/05 09:34:38;;;;;;;;;;;18.10;74.70;;;;;;5075597;28;19931;-80
2022/02/05 09:37:04;;;;;;;;;;;17.70;75.20;;;;;;5074231;28;19909;-81
2022/02/05 09:39:29;;;;;;;;;;;16.10;77.80;;;;;;5073945;28;19908;-82
2022/02/05 09:41:55;;;;;;;;;;;16.10;79.10;;;;;;5040310;28;19909;-81
2022/02/05 09:44:26;;;;;;;;;;;16.30;76.80;;;;;;5055258;28;19912;-81
2022/02/05 09:46:54;;;;;;;;;;;15.60;78.60;;;;;;5054440;28;19916;-81
2022/02/05 09:49:21;;;;;;;;;;;16.40;80.10;;;;;;5062713;28;20428;-81
2022/02/05 09:51:55;;;;;;;;;;;17.40;77.90;;;;;;5055127;28;19909;-81
2022/02/05 09:54:21;;;;;;;;;;;17.90;75.50;;;;;;5055031;28;20365;-80
2022/02/05 09:56:47;;;;;;;;;;;18.80;74.80;;;;;;5036899;28;19967;-79
2022/02/05 09:59:13;;;;;;;;;;;18.60;75.50;;;;;;5035633;28;19961;-82
2022/02/05 10:01:39;;;;;;;;;;;18.80;73.30;;;;;;5055072;28;19991;-81
2022/02/05 10:04:06;;;;;;;;;;;17.20;73.30;;;;;;5036862;28;19909;-80
2022/02/05 10:06:39;;;;;;;;;;;16.70;76.20;;;;;;5054665;28;19969;-81
2022/02/05 10:09:12;;;;;;;;;;;19.00;74.80;;;;;;5067459;28;19909;-81
2022/02/05 10:11:49;;;;;;;;;;;20.20;72.00;;;;;;5054873;28;19915;-81
2022/02/05 10:14:16;;;;;;;;;;;20.20;69.80;;;;;;5036970;28;19912;-81
2022/02/05 10:16:48;;;;;;;;;;;20.10;69.90;;;;;;5033868;28;19921;-80
2022/02/05 10:19:14;;;;;;;;;;;21.00;67.60;;;;;;5052259;28;20318;-81
2022/02/05 10:21:39;;;;;;;;;;;21.60;67.60;;;;;;5054288;28;19909;-81
2022/02/05 10:24:06;;;;;;;;;;;19.90;67.20;;;;;;5036698;28;19947;-80
2022/02/05 10:26:36;;;;;;;;;;;20.70;69.40;;;;;;5035270;28;19994;-81
2022/02/05 10:29:13;;;;;;;;;;;19.60;69.20;;;;;;5031603;28;19913;-78
2022/02/05 10:31:54;;;;;;;;;;;18.90;69.80;;;;;;5013749;28;19921;-79
2022/02/05 10:34:19;;;;;;;;;;;21.30;70.20;;;;;;5033085;28;19916;-78
2022/02/05 10:36:47;;;;;;;;;;;20.80;66.30;;;;;;5033652;28;19909;-79
2022/02/05 10:39:25;;;;;;;;;;;22.00;65.40;;;;;;5041506;28;19960;-78
2022/02/05 10:44:36;;;;;;;;;;;23.90;64.00;;;;;;5033613;28;20449;-78
2022/02/05 10:47:02;;;;;;;;;;;24.80;59.90;;;;;;5037012;28;19917;-79
2022/02/05 10:49:44;;;;;;;;;;;25.40;58.50;;;;;;5031217;28;19916;-78
2022/02/05 10:52:23;;;;;;;;;;;24.10;57.50;;;;;;5034356;28;19909;-79
2022/02/05 10:54:53;;;;;;;;;;;24.70;58.30;;;;;;5034192;28;20015;-79
2022/02/05 10:57:25;;;;;;;;;;;23.80;57.70;;;;;;5033675;28;20374;-77
2022/02/05 11:05:39;;;;;;;;;;;23.30;59.40;;;;;;5033884;28;19931;-78
2022/02/05 11:08:05;;;;;;;;;;;21.40;59.70;;;;;;5032128;28;19917;-78
2022/02/05 11:18:55;;;;;;;;;;;24.10;58.10;;;;;;5053426;28;19963;-79
2022/02/05 11:21:14;;;;;;;;;;;23.40;58.20;;;;;;5053017;28;19908;-81
2022/02/05 11:23:44;;;;;;;;;;;23.60;58.10;;;;;;5035803;28;19913;-77
2022/02/05 11:26:10;;;;;;;;;;;26.50;57.20;;;;;;5053077;28;19915;-79
2022/02/05 11:28:52;;;;;;;;;;;25.90;54.80;;;;;;5053336;28;19992;-78
2022/02/05 11:31:31;;;;;;;;;;;26.50;53.60;;;;;;5053641;28;19908;-78
2022/02/05 11:34:15;;;;;;;;;;;27.50;52.80;;;;;;5035218;28;19947;-79
2022/02/05 11:36:57;;;;;;;;;;;28.80;51.60;;;;;;5053611;28;20415;-79
2022/02/05 11:39:23;;;;;;;;;;;25.40;51.60;;;;;;5053186;28;19909;-78
2022/02/05 11:41:50;;;;;;;;;;;27.20;52.20;;;;;;5033992;28;19915;-78
2022/02/05 11:44:34;;;;;;;;;;;26.40;52.30;;;;;;5034812;28;20291;-78
2022/02/05 11:47:09;;;;;;;;;;;28.90;51.30;;;;;;5053176;28;20323;-77
2022/02/05 11:49:55;;;;;;;;;;;29.00;49.60;;;;;;5053517;28;19909;-79
2022/02/05 11:52:40;;;;;;;;;;;27.50;49.20;;;;;;5052927;28;19915;-77
2022/02/05 11:55:07;;;;;;;;;;;27.00;49.80;;;;;;5054729;28;19975;-77
2022/02/05 11:57:45;;;;;;;;;;;23.60;52.70;;;;;;5056488;28;19916;-78
2022/02/05 12:00:12;;;;;;;;;;;25.90;52.00;;;;;;5056367;28;19909;-79
2022/02/05 12:02:38;;;;;;;;;;;27.60;50.10;;;;;;5056312;28;19909;-78
2022/02/05 12:05:12;;;;;;;;;;;27.30;51.10;;;;;;5056316;28;19996;-77
2022/02/05 12:07:58;;;;;;;;;;;28.10;50.10;;;;;;5038366;28;19913;-77
2022/02/05 12:10:38;;;;;;;;;;;29.20;48.00;;;;;;5042461;28;19932;-77
2022/02/05 12:13:22;;;;;;;;;;;26.20;47.50;;;;;;5056683;28;19951;-76
2022/02/05 12:15:54;;;;;;;;;;;26.80;47.90;;;;;;5056472;28;19925;-77
2022/02/05 12:20:52;;;;;;;;;;;27.60;47.90;;;;;;5056570;28;19941;-77
2022/02/05 12:24:03;;;;;;;;;;;28.20;48.20;;;;;;5056525;28;19913;-78
2022/02/05 12:26:18;;;;;;;;;;;26.80;48.50;;;;;;5056296;28;19959;-78
2022/02/05 12:28:45;;;;;;;;;;;28.50;46.90;;;;;;5038552;28;19916;-77
2022/02/05 12:31:16;;;;;;;;;;;31.70;45.90;;;;;;5056374;28;19909;-78
2022/02/05 12:33:42;;;;;;;;;;;28.60;45.60;;;;;;5056223;28;19909;-76
2022/02/05 12:36:08;;;;;;;;;;;27.30;46.50;;;;;;5056392;28;19917;-77
2022/02/05 12:38:39;;;;;;;;;;;26.60;48.20;;;;;;5038378;28;20289;-77
2022/02/05 12:41:06;;;;;;;;;;;27.50;47.10;;;;;;5038281;28;19909;-77
2022/02/05 12:43:48;;;;;;;;;;;27.60;48.00;;;;;;5056365;28;19909;-79
2022/02/05 12:46:14;;;;;;;;;;;29.70;46.10;;;;;;5056203;28;19915;-77
2022/02/05 12:48:40;;;;;;;;;;;27.00;45.20;;;;;;5056241;28;19909;-78
2022/02/05 12:51:06;;;;;;;;;;;27.40;47.00;;;;;;5038139;28;20276;-77
2022/02/05 12:53:32;;;;;;;;;;;22.60;48.70;;;;;;5055974;28;19999;-77
2022/02/05 12:56:18;;;;;;;;;;;24.90;52.40;;;;;;5037989;28;20016;-77
2022/02/05 12:59:01;;;;;;;;;;;26.40;48.30;;;;;;5055344;28;19909;-77
2022/02/05 13:01:27;;;;;;;;;;;23.00;49.90;;;;;;5056135;28;20265;-77
2022/02/05 13:04:09;;;;;;;;;;;21.90;52.00;;;;;;5055740;28;19916;-78
2022/02/05 13:06:35;;;;;;;;;;;23.80;52.00;;;;;;5055058;28;20370;-77
2022/02/05 13:09:00;;;;;;;;;;;25.40;48.70;;;;;;5037765;28;19909;-77
2022/02/05 13:11:29;;;;;;;;;;;27.10;47.10;;;;;;5055557;28;20281;-78
2022/02/05 13:13:55;;;;;;;;;;;24.70;47.70;;;;;;5055532;28;19959;-78
2022/02/05 13:16:21;;;;;;;;;;;25.90;48.70;;;;;;5055315;28;19921;-78
2022/02/05 13:19:19;;;;;;;;;;;25.40;48.10;;;;;;5055498;28;19992;-78
2022/02/05 13:24:57;;;;;;;;;;;22.70;49.40;;;;;;5055172;28;19915;-78
2022/02/05 13:27:41;;;;;;;;;;;23.50;49.50;;;;;;5037107;28;19908;-77
2022/02/05 13:35:54;;;;;;;;;;;22.50;49.60;;;;;;5054854;28;19966;-79
2022/02/05 13:38:20;;;;;;;;;;;21.40;51.20;;;;;;5055098;28;19940;-77
2022/02/05 13:40:50;;;;;;;;;;;23.80;51.80;;;;;;5055083;28;19916;-78
2022/02/05 13:43:19;;;;;;;;;;;23.40;50.00;;;;;;5037118;28;19909;-77
2022/02/05 13:45:45;;;;;;;;;;;22.50;50.80;;;;;;5055004;28;19916;-77
2022/02/05 13:48:22;;;;;;;;;;;23.50;50.50;;;;;;5054854;28;19909;-78
2022/02/05 13:50:47;;;;;;;;;;;22.70;49.70;;;;;;5055078;28;19923;-77
2022/02/05 13:53:14;;;;;;;;;;;22.90;51.30;;;;;;5054836;28;19912;-78
2022/02/05 13:55:41;;;;;;;;;;;22.90;50.10;;;;;;5036831;28;19998;-76
2022/02/05 13:58:11;;;;;;;;;;;22.30;49.80;;;;;;5036845;28;19909;-78
2022/02/05 14:00:47;;;;;;;;;;;22.30;52.00;;;;;;5054677;28;19913;-77
2022/02/05 14:03:14;;;;;;;;;;;21.70;51.20;;;;;;5054815;28;19909;-76
2022/02/05 14:05:43;;;;;;;;;;;21.50;51.40;;;;;;5054560;28;19908;-78
2022/02/05 14:08:09;;;;;;;;;;;23.40;51.40;;;;;;5054612;28;19912;-76
2022/02/05 14:10:35;;;;;;;;;;;23.70;49.70;;;;;;5054501;28;20008;-77
2022/02/05 14:13:00;;;;;;;;;;;21.80;52.60;;;;;;5036636;28;19956;-78
2022/02/05 14:15:27;;;;;;;;;;;25.00;50.80;;;;;;5054095;28;19975;-78
2022/02/05 14:18:07;;;;;;;;;;;26.00;49.10;;;;;;5053380;28;19989;-78
2022/02/05 14:20:38;;;;;;;;;;;25.60;49.00;;;;;;5036433;28;19994;-77
2022/02/05 14:23:08;;;;;;;;;;;24.50;49.60;;;;;;5054627;28;19971;-77
2022/02/05 14:25:46;;;;;;;;;;;23.60;51.60;;;;;;5054168;28;19909;-77
2022/02/05 14:28:16;;;;;;;;;;;24.00;51.10;;;;;;5035981;28;19923;-77
2022/02/05 14:30:54;;;;;;;;;;;23.80;50.90;;;;;;5054067;28;19908;-77
2022/02/05 14:33:21;;;;;;;;;;;24.60;50.70;;;;;;5054370;28;19913;-76
2022/02/05 14:40:59;;;;;;;;;;;18.90;56.80;;;;;;5053908;28;19916;-76
2022/02/05 14:43:25;;;;;;;;;;;18.80;59.30;;;;;;5054012;28;19909;-79
2022/02/05 14:45:52;;;;;;;;;;;20.20;57.50;;;;;;5054020;28;19916;-79
2022/02/05 14:48:18;;;;;;;;;;;22.60;52.50;;;;;;5035932;28;20400;-80
2022/02/05 14:50:43;;;;;;;;;;;23.60;51.50;;;;;;5054099;28;19909;-80
2022/02/05 14:53:09;;;;;;;;;;;21.90;52.70;;;;;;5053619;28;19909;-79
2022/02/05 14:55:35;;;;;;;;;;;19.20;56.80;;;;;;5053816;28;19912;-80
2022/02/05 14:58:01;;;;;;;;;;;18.60;59.50;;;;;;5053693;28;19909;-79
2022/02/05 15:00:26;;;;;;;;;;;18.10;58.20;;;;;;5053597;28;19952;-80
2022/02/05 15:02:52;;;;;;;;;;;17.70;60.00;;;;;;5053608;28;19923;-79
2022/02/05 15:05:18;;;;;;;;;;;16.60;62.10;;;;;;5035723;28;19916;-79
2022/02/05 15:07:44;;;;;;;;;;;18.00;60.80;;;;;;5053538;28;19909;-79
2022/02/05 15:10:15;;;;;;;;;;;16.90;60.60;;;;;;5053479;28;20280;-79
2022/02/05 15:12:41;;;;;;;;;;;16.60;63.20;;;;;;5053547;28;19909;-80
2022/02/05 15:15:13;;;;;;;;;;;16.40;63.50;;;;;;5053206;28;19990;-78
2022/02/05 15:17:42;;;;;;;;;;;16.00;65.10;;;;;;5035277;28;19920;-79
2022/02/05 15:20:11;;;;;;;;;;;15.80;65.20;;;;;;5053393;28;20432;-79
2022/02/05 15:22:37;;;;;;;;;;;15.00;68.20;;;;;;5053413;28;19909;-78
2022/02/05 15:25:03;;;;;;;;;;;15.00;68.30;;;;;;5053304;28;19971;-78
2022/02/05 15:27:29;;;;;;;;;;;15.20;69.30;;;;;;5035409;28;19913;-79
2022/02/05 15:29:55;;;;;;;;;;;15.00;69.90;;;;;;5057153;28;19915;-79
2022/02/05 15:32:20;;;;;;;;;;;14.70;69.10;;;;;;5059967;28;19954;-79
2022/02/05 15:34:47;;;;;;;;;;;14.90;70.30;;;;;;5059836;28;20281;-79
2022/02/05 15:37:19;;;;;;;;;;;15.10;69.10;;;;;;5060169;28;19972;-79
2022/02/05 15:44:57;;;;;;;;;;;14.30;72.10;;;;;;5059572;28;19931;-78
2022/02/05 15:47:23;;;;;;;;;;;13.90;73.00;;;;;;5059761;28;19916;-78
2022/02/05 15:49:49;;;;;;;;;;;13.80;73.90;;;;;;5059780;28;19913;-79
2022/02/05 15:52:15;;;;;;;;;;;13.80;74.80;;;;;;5060081;28;19991;-79
2022/02/05 15:54:40;;;;;;;;;;;13.60;75.10;;;;;;5059652;28;19908;-78
2022/02/05 15:57:19;;;;;;;;;;;13.70;75.50;;;;;;5059687;28;19908;-78
2022/02/05 16:02:10;;;;;;;;;;;13.70;75.10;;;;;;5059946;28;19974;-79
2022/02/05 16:04:36;;;;;;;;;;;13.50;76.10;;;;;;5059632;28;19915;-79
2022/02/05 16:07:02;;;;;;;;;;;13.50;75.80;;;;;;5041783;28;19913;-78
2022/02/05 16:09:27;;;;;;;;;;;13.50;76.20;;;;;;5059593;28;19967;-79
2022/02/05 16:11:53;;;;;;;;;;;13.40;76.90;;;;;;5059835;28;19992;-78
2022/02/05 16:14:18;;;;;;;;;;;13.50;77.50;;;;;;5059548;28;19958;-79
2022/02/05 16:16:44;;;;;;;;;;;13.50;77.10;;;;;;5059125;28;20038;-78
2022/02/05 16:19:10;;;;;;;;;;;13.50;77.70;;;;;;5059508;28;20366;-79
2022/02/05 16:21:35;;;;;;;;;;;14.30;75.80;;;;;;5059535;28;19909;-79
2022/02/05 16:24:04;;;;;;;;;;;14.10;76.90;;;;;;5041479;28;20488;-78
2022/02/05 16:26:29;;;;;;;;;;;13.60;78.00;;;;;;5059512;28;19912;-79
2022/02/05 16:28:55;;;;;;;;;;;13.40;78.60;;;;;;5059625;28;20495;-78
2022/02/05 16:31:20;;;;;;;;;;;13.30;79.00;;;;;;5059517;28;19930;-78
2022/02/05 16:33:46;;;;;;;;;;;13.50;78.60;;;;;;5059483;28;19966;-79
2022/02/05 16:36:17;;;;;;;;;;;13.20;79.50;;;;;;5059279;28;19960;-79
2022/02/05 16:38:46;;;;;;;;;;;13.00;80.10;;;;;;5059595;28;19913;-79
2022/02/05 16:41:11;;;;;;;;;;;12.90;81.10;;;;;;5056696;28;19923;-79
2022/02/05 16:43:39;;;;;;;;;;;12.60;82.00;;;;;;5056105;28;19909;-79
2022/02/05 16:46:08;;;;;;;;;;;12.40;83.10;;;;;;5056134;28;19959;-78
2022/02/05 16:48:35;;;;;;;;;;;12.20;84.00;;;;;;5056182;28;19958;-79
2022/02/05 16:51:01;;;;;;;;;;;12.20;84.20;;;;;;5056109;28;19909;-79
2022/02/05 16:53:27;;;;;;;;;;;12.20;85.20;;;;;;5055933;28;19934;-79
2022/02/05 16:55:52;;;;;;;;;;;12.10;85.90;;;;;;5056049;28;19916;-78
2022/02/05 16:58:18;;;;;;;;;;;12.00;86.80;;;;;;5056023;28;20377;-79
2022/02/05 17:00:44;;;;;;;;;;;12.00;87.60;;;;;;5037929;28;20385;-78
2022/02/05 17:03:09;;;;;;;;;;;12.00;88.10;;;;;;5055787;28;20288;-79
2022/02/05 17:05:40;;;;;;;;;;;12.00;88.70;;;;;;5056145;28;19948;-78
2022/02/05 17:08:08;;;;;;;;;;;12.00;88.90;;;;;;5037625;28;19909;-78
2022/02/05 17:10:34;;;;;;;;;;;11.80;89.90;;;;;;5055643;28;20003;-79
2022/02/05 17:13:00;;;;;;;;;;;11.80;90.10;;;;;;5055558;28;19975;-79
2022/02/05 17:15:26;;;;;;;;;;;11.70;90.60;;;;;;5055551;28;19925;-78